sensor_id;sensor_type;location;lat;lon;timestamp;P1;durP1;ratioP1;P2;durP2;ratioP2
74064;SDS011;62421;51.412;5.432;2022-08-20T00:00:46;20.10;;;12.40;;
74064;SDS011;62421;51.412;5.432;2022-08-20T00:03:17;20.20;;;12.70;;
74064;SDS011;62421;51.412;5.432;2022-08-20T00:05:50;20.00;;;12.45;;
74064;SDS011;62421;51.412;5.432;2022-08-20T00:08:19;19.05;;;12.15;;
74064;SDS011;62421;51.412;5.432;2022-08-20T00:10:46;20.45;;;12.18;;
74064;SDS011;62421;51.412;5.432;2022-08-20T00:13:14;20.27;;;12.17;;
74064;SDS011;62421;51.412;5.432;2022-08-20T00:15:42;19.15;;;12.40;;
74064;SDS011;62421;51.412;5.432;2022-08-20T00:18:08;20.60;;;12.63;;
74064;SDS011;62421;51.412;5.432;2022-08-20T00:20:36;20.25;;;12.80;;
74064;SDS011;62421;51.412;5.432;2022-08-20T00:23:04;20.23;;;13.07;;
74064;SDS011;62421;51.412;5.432;2022-08-20T00:25:29;17.50;;;12.07;;
74064;SDS011;62421;51.412;5.432;2022-08-20T00:27:55;18.63;;;11.93;;
74064;SDS011;62421;51.412;5.432;2022-08-20T00:30:21;19.23;;;12.95;;
74064;SDS011;62421;51.412;5.432;2022-08-20T00:32:49;22.90;;;13.37;;
74064;SDS011;62421;51.412;5.432;2022-08-20T00:35:19;18.80;;;12.38;;
74064;SDS011;62421;51.412;5.432;2022-08-20T00:37:46;18.95;;;11.85;;
74064;SDS011;62421;51.412;5.432;2022-08-20T00:40:13;20.27;;;11.73;;
74064;SDS011;62421;51.412;5.432;2022-08-20T00:42:47;18.23;;;12.02;;
74064;SDS011;62421;51.412;5.432;2022-08-20T00:45:16;17.92;;;12.52;;
74064;SDS011;62421;51.412;5.432;2022-08-20T00:47:42;19.85;;;12.10;;
74064;SDS011;62421;51.412;5.432;2022-08-20T00:50:09;25.30;;;13.50;;
74064;SDS011;62421;51.412;5.432;2022-08-20T00:52:37;18.40;;;10.88;;
74064;SDS011;62421;51.412;5.432;2022-08-20T00:55:04;21.17;;;13.25;;
74064;SDS011;62421;51.412;5.432;2022-08-20T00:57:32;21.77;;;12.73;;
74064;SDS011;62421;51.412;5.432;2022-08-20T01:00:03;19.67;;;11.82;;
74064;SDS011;62421;51.412;5.432;2022-08-20T01:02:33;19.80;;;12.68;;
74064;SDS011;62421;51.412;5.432;2022-08-20T01:04:59;22.10;;;12.68;;
74064;SDS011;62421;51.412;5.432;2022-08-20T01:07:26;23.63;;;12.67;;
74064;SDS011;62421;51.412;5.432;2022-08-20T01:09:59;19.25;;;11.82;;
74064;SDS011;62421;51.412;5.432;2022-08-20T01:12:27;28.05;;;13.55;;
74064;SDS011;62421;51.412;5.432;2022-08-20T01:14:53;23.67;;;12.23;;
74064;SDS011;62421;51.412;5.432;2022-08-20T01:17:22;20.05;;;12.50;;
74064;SDS011;62421;51.412;5.432;2022-08-20T01:22:39;20.40;;;13.00;;
74064;SDS011;62421;51.412;5.432;2022-08-20T01:28:06;20.73;;;13.57;;
74064;SDS011;62421;51.412;5.432;2022-08-20T01:30:32;22.55;;;12.98;;
74064;SDS011;62421;51.412;5.432;2022-08-20T01:32:58;22.27;;;12.93;;
74064;SDS011;62421;51.412;5.432;2022-08-20T01:35:23;22.35;;;14.60;;
74064;SDS011;62421;51.412;5.432;2022-08-20T01:37:50;22.57;;;14.43;;
74064;SDS011;62421;51.412;5.432;2022-08-20T01:40:16;24.50;;;15.65;;
74064;SDS011;62421;51.412;5.432;2022-08-20T01:42:55;23.75;;;15.50;;
74064;SDS011;62421;51.412;5.432;2022-08-20T01:45:21;24.87;;;16.63;;
74064;SDS011;62421;51.412;5.432;2022-08-20T01:47:46;24.03;;;16.53;;
74064;SDS011;62421;51.412;5.432;2022-08-20T01:50:16;31.53;;;18.60;;
74064;SDS011;62421;51.412;5.432;2022-08-20T01:55:12;32.37;;;18.70;;
74064;SDS011;62421;51.412;5.432;2022-08-20T01:57:37;32.40;;;20.17;;
74064;SDS011;62421;51.412;5.432;2022-08-20T02:00:05;35.00;;;20.75;;
74064;SDS011;62421;51.412;5.432;2022-08-20T02:02:37;30.85;;;20.52;;
74064;SDS011;62421;51.412;5.432;2022-08-20T02:05:03;34.83;;;22.87;;
74064;SDS011;62421;51.412;5.432;2022-08-20T02:07:28;34.60;;;21.58;;
74064;SDS011;62421;51.412;5.432;2022-08-20T02:09:56;32.55;;;22.35;;
74064;SDS011;62421;51.412;5.432;2022-08-20T02:12:22;38.93;;;23.40;;
74064;SDS011;62421;51.412;5.432;2022-08-20T02:14:48;40.83;;;24.30;;
74064;SDS011;62421;51.412;5.432;2022-08-20T02:17:16;40.22;;;23.88;;
74064;SDS011;62421;51.412;5.432;2022-08-20T02:19:44;40.97;;;23.83;;
74064;SDS011;62421;51.412;5.432;2022-08-20T02:24:44;37.72;;;22.65;;
74064;SDS011;62421;51.412;5.432;2022-08-20T02:27:10;38.83;;;24.20;;
74064;SDS011;62421;51.412;5.432;2022-08-20T02:29:35;34.15;;;23.23;;
74064;SDS011;62421;51.412;5.432;2022-08-20T02:32:01;37.07;;;23.63;;
74064;SDS011;62421;51.412;5.432;2022-08-20T02:34:26;44.30;;;24.27;;
74064;SDS011;62421;51.412;5.432;2022-08-20T02:36:51;35.45;;;23.90;;
74064;SDS011;62421;51.412;5.432;2022-08-20T02:39:18;39.10;;;24.92;;
74064;SDS011;62421;51.412;5.432;2022-08-20T02:41:43;36.30;;;24.23;;
74064;SDS011;62421;51.412;5.432;2022-08-20T02:44:08;34.40;;;23.30;;
74064;SDS011;62421;51.412;5.432;2022-08-20T02:46:34;36.35;;;24.50;;
74064;SDS011;62421;51.412;5.432;2022-08-20T02:49:00;39.05;;;23.67;;
74064;SDS011;62421;51.412;5.432;2022-08-20T02:51:25;36.63;;;24.67;;
74064;SDS011;62421;51.412;5.432;2022-08-20T02:53:52;42.17;;;26.30;;
74064;SDS011;62421;51.412;5.432;2022-08-20T02:56:17;43.23;;;26.20;;
74064;SDS011;62421;51.412;5.432;2022-08-20T02:58:43;44.73;;;26.90;;
74064;SDS011;62421;51.412;5.432;2022-08-20T03:01:10;46.50;;;27.13;;
74064;SDS011;62421;51.412;5.432;2022-08-20T03:03:38;45.10;;;25.55;;
74064;SDS011;62421;51.412;5.432;2022-08-20T03:06:05;45.05;;;26.63;;
74064;SDS011;62421;51.412;5.432;2022-08-20T03:08:32;44.55;;;27.30;;
74064;SDS011;62421;51.412;5.432;2022-08-20T03:10:58;45.13;;;28.47;;
74064;SDS011;62421;51.412;5.432;2022-08-20T03:13:23;48.15;;;28.60;;
74064;SDS011;62421;51.412;5.432;2022-08-20T03:15:50;49.87;;;30.00;;
74064;SDS011;62421;51.412;5.432;2022-08-20T03:18:19;48.92;;;30.05;;
74064;SDS011;62421;51.412;5.432;2022-08-20T03:20:46;44.27;;;30.03;;
74064;SDS011;62421;51.412;5.432;2022-08-20T03:23:13;51.97;;;29.60;;
74064;SDS011;62421;51.412;5.432;2022-08-20T03:25:40;42.75;;;26.90;;
74064;SDS011;62421;51.412;5.432;2022-08-20T03:28:06;39.13;;;21.75;;
74064;SDS011;62421;51.412;5.432;2022-08-20T03:30:32;34.10;;;19.07;;
74064;SDS011;62421;51.412;5.432;2022-08-20T03:32:57;39.08;;;19.67;;
74064;SDS011;62421;51.412;5.432;2022-08-20T03:35:24;36.27;;;19.33;;
74064;SDS011;62421;51.412;5.432;2022-08-20T03:37:51;35.28;;;18.55;;
74064;SDS011;62421;51.412;5.432;2022-08-20T03:40:22;35.65;;;17.38;;
74064;SDS011;62421;51.412;5.432;2022-08-20T03:42:53;32.17;;;16.85;;
74064;SDS011;62421;51.412;5.432;2022-08-20T03:45:19;31.73;;;18.37;;
74064;SDS011;62421;51.412;5.432;2022-08-20T03:47:46;32.90;;;17.52;;
74064;SDS011;62421;51.412;5.432;2022-08-20T03:50:12;35.15;;;18.40;;
74064;SDS011;62421;51.412;5.432;2022-08-20T03:52:38;39.10;;;17.53;;
74064;SDS011;62421;51.412;5.432;2022-08-20T03:55:04;37.50;;;17.53;;
74064;SDS011;62421;51.412;5.432;2022-08-20T03:57:30;34.15;;;17.50;;
74064;SDS011;62421;51.412;5.432;2022-08-20T03:59:56;38.13;;;18.73;;
74064;SDS011;62421;51.412;5.432;2022-08-20T04:02:22;33.80;;;18.33;;
74064;SDS011;62421;51.412;5.432;2022-08-20T04:04:48;38.03;;;19.58;;
74064;SDS011;62421;51.412;5.432;2022-08-20T04:07:19;34.33;;;20.10;;
74064;SDS011;62421;51.412;5.432;2022-08-20T04:09:58;36.40;;;20.20;;
74064;SDS011;62421;51.412;5.432;2022-08-20T04:12:24;36.03;;;20.20;;
74064;SDS011;62421;51.412;5.432;2022-08-20T04:14:50;42.42;;;20.13;;
74064;SDS011;62421;51.412;5.432;2022-08-20T04:17:17;33.07;;;19.40;;
74064;SDS011;62421;51.412;5.432;2022-08-20T04:19:45;37.22;;;19.92;;
74064;SDS011;62421;51.412;5.432;2022-08-20T04:22:11;36.30;;;19.55;;
74064;SDS011;62421;51.412;5.432;2022-08-20T04:24:38;38.08;;;20.25;;
74064;SDS011;62421;51.412;5.432;2022-08-20T04:27:04;37.28;;;20.58;;
74064;SDS011;62421;51.412;5.432;2022-08-20T04:29:30;39.17;;;20.13;;
74064;SDS011;62421;51.412;5.432;2022-08-20T04:31:57;40.65;;;22.73;;
74064;SDS011;62421;51.412;5.432;2022-08-20T04:34:22;37.67;;;22.07;;
74064;SDS011;62421;51.412;5.432;2022-08-20T04:36:48;42.93;;;23.80;;
74064;SDS011;62421;51.412;5.432;2022-08-20T04:39:14;44.60;;;25.40;;
74064;SDS011;62421;51.412;5.432;2022-08-20T04:41:40;45.08;;;25.88;;
74064;SDS011;62421;51.412;5.432;2022-08-20T04:44:06;45.47;;;27.48;;
74064;SDS011;62421;51.412;5.432;2022-08-20T04:46:33;41.75;;;27.55;;
74064;SDS011;62421;51.412;5.432;2022-08-20T04:48:59;53.27;;;29.33;;
74064;SDS011;62421;51.412;5.432;2022-08-20T04:51:25;51.00;;;27.38;;
74064;SDS011;62421;51.412;5.432;2022-08-20T04:53:51;44.40;;;27.03;;
74064;SDS011;62421;51.412;5.432;2022-08-20T04:56:18;49.35;;;27.27;;
74064;SDS011;62421;51.412;5.432;2022-08-20T04:58:47;46.80;;;27.35;;
74064;SDS011;62421;51.412;5.432;2022-08-20T05:01:15;42.53;;;25.38;;
74064;SDS011;62421;51.412;5.432;2022-08-20T05:03:41;47.20;;;24.13;;
74064;SDS011;62421;51.412;5.432;2022-08-20T05:06:08;45.70;;;25.70;;
74064;SDS011;62421;51.412;5.432;2022-08-20T05:08:35;40.55;;;24.00;;
74064;SDS011;62421;51.412;5.432;2022-08-20T05:11:03;53.05;;;23.42;;
74064;SDS011;62421;51.412;5.432;2022-08-20T05:13:28;46.17;;;24.13;;
74064;SDS011;62421;51.412;5.432;2022-08-20T05:15:54;44.30;;;23.23;;
74064;SDS011;62421;51.412;5.432;2022-08-20T05:18:21;46.77;;;24.17;;
74064;SDS011;62421;51.412;5.432;2022-08-20T05:20:48;44.83;;;23.42;;
74064;SDS011;62421;51.412;5.432;2022-08-20T05:23:15;43.73;;;22.97;;
74064;SDS011;62421;51.412;5.432;2022-08-20T05:25:43;53.80;;;25.65;;
74064;SDS011;62421;51.412;5.432;2022-08-20T05:28:15;46.33;;;24.00;;
74064;SDS011;62421;51.412;5.432;2022-08-20T05:30:46;51.22;;;25.48;;
74064;SDS011;62421;51.412;5.432;2022-08-20T05:33:14;45.15;;;24.45;;
74064;SDS011;62421;51.412;5.432;2022-08-20T05:35:43;53.73;;;25.60;;
74064;SDS011;62421;51.412;5.432;2022-08-20T05:38:12;57.63;;;27.58;;
74064;SDS011;62421;51.412;5.432;2022-08-20T05:40:39;54.13;;;27.60;;
74064;SDS011;62421;51.412;5.432;2022-08-20T05:43:06;52.78;;;26.45;;
74064;SDS011;62421;51.412;5.432;2022-08-20T05:45:33;52.28;;;27.45;;
74064;SDS011;62421;51.412;5.432;2022-08-20T05:48:08;52.63;;;26.50;;
74064;SDS011;62421;51.412;5.432;2022-08-20T05:50:39;51.00;;;25.77;;
74064;SDS011;62421;51.412;5.432;2022-08-20T05:53:06;40.08;;;24.65;;
74064;SDS011;62421;51.412;5.432;2022-08-20T05:55:32;45.42;;;23.55;;
74064;SDS011;62421;51.412;5.432;2022-08-20T05:57:58;47.40;;;24.43;;
74064;SDS011;62421;51.412;5.432;2022-08-20T06:00:26;50.63;;;26.13;;
74064;SDS011;62421;51.412;5.432;2022-08-20T06:02:52;50.03;;;25.30;;
74064;SDS011;62421;51.412;5.432;2022-08-20T06:05:36;45.33;;;25.10;;
74064;SDS011;62421;51.412;5.432;2022-08-20T06:08:05;52.72;;;25.73;;
74064;SDS011;62421;51.412;5.432;2022-08-20T06:10:32;46.73;;;25.50;;
74064;SDS011;62421;51.412;5.432;2022-08-20T06:12:58;53.08;;;26.27;;
74064;SDS011;62421;51.412;5.432;2022-08-20T06:15:23;58.27;;;27.77;;
74064;SDS011;62421;51.412;5.432;2022-08-20T06:17:49;51.47;;;26.43;;
74064;SDS011;62421;51.412;5.432;2022-08-20T06:20:14;55.08;;;27.98;;
74064;SDS011;62421;51.412;5.432;2022-08-20T06:22:39;50.30;;;27.10;;
74064;SDS011;62421;51.412;5.432;2022-08-20T06:25:05;46.07;;;26.70;;
74064;SDS011;62421;51.412;5.432;2022-08-20T06:27:31;51.97;;;26.92;;
74064;SDS011;62421;51.412;5.432;2022-08-20T06:29:57;57.28;;;27.90;;
74064;SDS011;62421;51.412;5.432;2022-08-20T06:32:23;57.33;;;28.13;;
74064;SDS011;62421;51.412;5.432;2022-08-20T06:34:50;53.97;;;25.42;;
74064;SDS011;62421;51.412;5.432;2022-08-20T06:37:19;53.60;;;26.90;;
74064;SDS011;62421;51.412;5.432;2022-08-20T06:39:46;52.15;;;27.80;;
74064;SDS011;62421;51.412;5.432;2022-08-20T06:42:12;59.23;;;28.00;;
74064;SDS011;62421;51.412;5.432;2022-08-20T06:44:37;51.33;;;25.60;;
74064;SDS011;62421;51.412;5.432;2022-08-20T06:47:03;60.50;;;27.63;;
74064;SDS011;62421;51.412;5.432;2022-08-20T06:49:29;54.28;;;26.63;;
74064;SDS011;62421;51.412;5.432;2022-08-20T06:51:55;62.75;;;27.58;;
74064;SDS011;62421;51.412;5.432;2022-08-20T06:54:21;59.97;;;25.48;;
74064;SDS011;62421;51.412;5.432;2022-08-20T06:56:46;63.33;;;27.97;;
74064;SDS011;62421;51.412;5.432;2022-08-20T06:59:12;60.00;;;28.83;;
74064;SDS011;62421;51.412;5.432;2022-08-20T07:01:37;63.22;;;29.92;;
74064;SDS011;62421;51.412;5.432;2022-08-20T07:04:03;57.73;;;27.57;;
74064;SDS011;62421;51.412;5.432;2022-08-20T07:06:29;62.00;;;28.57;;
74064;SDS011;62421;51.412;5.432;2022-08-20T07:08:55;61.35;;;29.23;;
74064;SDS011;62421;51.412;5.432;2022-08-20T07:11:20;62.03;;;29.27;;
74064;SDS011;62421;51.412;5.432;2022-08-20T07:13:46;58.70;;;28.87;;
74064;SDS011;62421;51.412;5.432;2022-08-20T07:16:13;63.55;;;29.98;;
74064;SDS011;62421;51.412;5.432;2022-08-20T07:18:38;59.92;;;30.27;;
74064;SDS011;62421;51.412;5.432;2022-08-20T07:21:04;61.67;;;31.27;;
74064;SDS011;62421;51.412;5.432;2022-08-20T07:23:29;57.70;;;30.13;;
74064;SDS011;62421;51.412;5.432;2022-08-20T07:25:55;60.00;;;31.55;;
74064;SDS011;62421;51.412;5.432;2022-08-20T07:28:22;62.67;;;29.87;;
74064;SDS011;62421;51.412;5.432;2022-08-20T07:30:49;62.28;;;31.02;;
74064;SDS011;62421;51.412;5.432;2022-08-20T07:33:34;54.40;;;28.50;;
74064;SDS011;62421;51.412;5.432;2022-08-20T07:36:03;61.58;;;30.35;;
74064;SDS011;62421;51.412;5.432;2022-08-20T07:38:29;56.23;;;28.73;;
74064;SDS011;62421;51.412;5.432;2022-08-20T07:41:06;59.85;;;30.23;;
74064;SDS011;62421;51.412;5.432;2022-08-20T07:43:34;57.45;;;30.50;;
74064;SDS011;62421;51.412;5.432;2022-08-20T07:46:00;61.23;;;29.97;;
74064;SDS011;62421;51.412;5.432;2022-08-20T07:48:27;53.35;;;28.75;;
74064;SDS011;62421;51.412;5.432;2022-08-20T07:50:58;57.33;;;28.83;;
74064;SDS011;62421;51.412;5.432;2022-08-20T07:53:25;54.20;;;28.38;;
74064;SDS011;62421;51.412;5.432;2022-08-20T07:55:51;59.07;;;29.10;;
74064;SDS011;62421;51.412;5.432;2022-08-20T07:58:17;55.17;;;28.17;;
74064;SDS011;62421;51.412;5.432;2022-08-20T08:00:44;65.60;;;29.93;;
74064;SDS011;62421;51.412;5.432;2022-08-20T08:03:10;55.33;;;27.35;;
74064;SDS011;62421;51.412;5.432;2022-08-20T08:05:38;63.08;;;29.83;;
74064;SDS011;62421;51.412;5.432;2022-08-20T08:08:06;63.08;;;29.17;;
74064;SDS011;62421;51.412;5.432;2022-08-20T08:10:35;60.30;;;28.88;;
74064;SDS011;62421;51.412;5.432;2022-08-20T08:13:02;55.87;;;29.03;;
74064;SDS011;62421;51.412;5.432;2022-08-20T08:15:31;60.10;;;28.48;;
74064;SDS011;62421;51.412;5.432;2022-08-20T08:17:59;59.90;;;29.38;;
74064;SDS011;62421;51.412;5.432;2022-08-20T08:20:32;54.78;;;27.23;;
74064;SDS011;62421;51.412;5.432;2022-08-20T08:23:01;51.72;;;27.30;;
74064;SDS011;62421;51.412;5.432;2022-08-20T08:25:27;55.07;;;26.47;;
74064;SDS011;62421;51.412;5.432;2022-08-20T08:27:53;55.55;;;28.10;;
74064;SDS011;62421;51.412;5.432;2022-08-20T08:30:18;54.00;;;27.42;;
74064;SDS011;62421;51.412;5.432;2022-08-20T08:32:44;56.03;;;28.47;;
74064;SDS011;62421;51.412;5.432;2022-08-20T08:35:29;53.35;;;27.63;;
74064;SDS011;62421;51.412;5.432;2022-08-20T08:37:58;54.58;;;26.73;;
74064;SDS011;62421;51.412;5.432;2022-08-20T08:40:25;54.78;;;26.63;;
74064;SDS011;62421;51.412;5.432;2022-08-20T08:42:51;62.77;;;28.73;;
74064;SDS011;62421;51.412;5.432;2022-08-20T08:45:22;53.13;;;28.17;;
74064;SDS011;62421;51.412;5.432;2022-08-20T08:47:51;56.53;;;28.17;;
74064;SDS011;62421;51.412;5.432;2022-08-20T08:50:26;51.42;;;27.65;;
74064;SDS011;62421;51.412;5.432;2022-08-20T08:52:54;47.67;;;26.15;;
74064;SDS011;62421;51.412;5.432;2022-08-20T08:55:23;46.22;;;24.73;;
74064;SDS011;62421;51.412;5.432;2022-08-20T08:57:50;47.65;;;25.27;;
74064;SDS011;62421;51.412;5.432;2022-08-20T09:00:19;46.87;;;27.00;;
74064;SDS011;62421;51.412;5.432;2022-08-20T09:05:39;52.72;;;27.15;;
74064;SDS011;62421;51.412;5.432;2022-08-20T09:08:11;42.88;;;25.95;;
74064;SDS011;62421;51.412;5.432;2022-08-20T09:10:40;43.45;;;25.70;;
74064;SDS011;62421;51.412;5.432;2022-08-20T09:13:06;45.83;;;24.40;;
74064;SDS011;62421;51.412;5.432;2022-08-20T09:15:31;40.83;;;23.88;;
74064;SDS011;62421;51.412;5.432;2022-08-20T09:17:57;45.10;;;22.50;;
74064;SDS011;62421;51.412;5.432;2022-08-20T09:20:22;41.53;;;22.17;;
74064;SDS011;62421;51.412;5.432;2022-08-20T09:22:48;38.03;;;20.83;;
74064;SDS011;62421;51.412;5.432;2022-08-20T09:25:14;39.00;;;21.02;;
74064;SDS011;62421;51.412;5.432;2022-08-20T09:27:39;27.70;;;15.53;;
74064;SDS011;62421;51.412;5.432;2022-08-20T09:30:05;27.73;;;15.77;;
74064;SDS011;62421;51.412;5.432;2022-08-20T09:32:30;28.60;;;14.50;;
74064;SDS011;62421;51.412;5.432;2022-08-20T09:34:56;28.60;;;16.43;;
74064;SDS011;62421;51.412;5.432;2022-08-20T09:37:24;32.22;;;16.63;;
74064;SDS011;62421;51.412;5.432;2022-08-20T09:39:50;31.23;;;17.45;;
74064;SDS011;62421;51.412;5.432;2022-08-20T09:42:18;37.33;;;18.50;;
74064;SDS011;62421;51.412;5.432;2022-08-20T09:44:48;32.20;;;17.40;;
74064;SDS011;62421;51.412;5.432;2022-08-20T09:47:14;28.40;;;15.52;;
74064;SDS011;62421;51.412;5.432;2022-08-20T09:49:41;28.15;;;11.98;;
74064;SDS011;62421;51.412;5.432;2022-08-20T09:52:08;25.98;;;12.68;;
74064;SDS011;62421;51.412;5.432;2022-08-20T09:54:35;26.23;;;12.13;;
74064;SDS011;62421;51.412;5.432;2022-08-20T09:57:05;27.30;;;15.57;;
74064;SDS011;62421;51.412;5.432;2022-08-20T09:59:33;27.67;;;15.60;;
74064;SDS011;62421;51.412;5.432;2022-08-20T10:02:00;30.38;;;15.98;;
74064;SDS011;62421;51.412;5.432;2022-08-20T10:04:25;23.55;;;10.10;;
74064;SDS011;62421;51.412;5.432;2022-08-20T10:06:51;23.70;;;8.98;;
74064;SDS011;62421;51.412;5.432;2022-08-20T10:09:16;21.97;;;7.47;;
74064;SDS011;62421;51.412;5.432;2022-08-20T10:11:41;23.00;;;6.97;;
74064;SDS011;62421;51.412;5.432;2022-08-20T10:14:07;16.77;;;6.40;;
74064;SDS011;62421;51.412;5.432;2022-08-20T10:16:35;18.25;;;6.35;;
74064;SDS011;62421;51.412;5.432;2022-08-20T10:19:01;22.50;;;8.40;;
74064;SDS011;62421;51.412;5.432;2022-08-20T10:21:28;18.92;;;8.68;;
74064;SDS011;62421;51.412;5.432;2022-08-20T10:23:54;18.77;;;8.25;;
74064;SDS011;62421;51.412;5.432;2022-08-20T10:26:20;17.27;;;9.13;;
74064;SDS011;62421;51.412;5.432;2022-08-20T10:28:45;17.03;;;6.73;;
74064;SDS011;62421;51.412;5.432;2022-08-20T10:31:11;23.47;;;8.87;;
74064;SDS011;62421;51.412;5.432;2022-08-20T10:33:37;19.10;;;7.57;;
74064;SDS011;62421;51.412;5.432;2022-08-20T10:36:13;13.07;;;4.32;;
74064;SDS011;62421;51.412;5.432;2022-08-20T10:38:41;16.97;;;4.17;;
74064;SDS011;62421;51.412;5.432;2022-08-20T10:41:06;14.57;;;4.40;;
74064;SDS011;62421;51.412;5.432;2022-08-20T10:43:32;14.30;;;5.10;;
74064;SDS011;62421;51.412;5.432;2022-08-20T10:45:58;15.73;;;4.83;;
74064;SDS011;62421;51.412;5.432;2022-08-20T10:48:23;12.03;;;4.07;;
74064;SDS011;62421;51.412;5.432;2022-08-20T10:50:49;16.63;;;4.95;;
74064;SDS011;62421;51.412;5.432;2022-08-20T10:53:15;16.17;;;5.30;;
74064;SDS011;62421;51.412;5.432;2022-08-20T10:55:40;18.92;;;5.57;;
74064;SDS011;62421;51.412;5.432;2022-08-20T10:58:06;19.77;;;6.23;;
74064;SDS011;62421;51.412;5.432;2022-08-20T11:00:32;14.05;;;5.20;;
74064;SDS011;62421;51.412;5.432;2022-08-20T11:02:59;14.13;;;4.90;;
74064;SDS011;62421;51.412;5.432;2022-08-20T11:05:24;11.23;;;4.40;;
74064;SDS011;62421;51.412;5.432;2022-08-20T11:07:50;18.40;;;6.30;;
74064;SDS011;62421;51.412;5.432;2022-08-20T11:10:16;22.63;;;7.23;;
74064;SDS011;62421;51.412;5.432;2022-08-20T11:12:41;35.08;;;8.55;;
74064;SDS011;62421;51.412;5.432;2022-08-20T11:15:07;22.40;;;7.32;;
74064;SDS011;62421;51.412;5.432;2022-08-20T11:17:34;22.10;;;7.50;;
74064;SDS011;62421;51.412;5.432;2022-08-20T11:20:03;16.33;;;6.50;;
74064;SDS011;62421;51.412;5.432;2022-08-20T11:22:31;18.98;;;5.90;;
74064;SDS011;62421;51.412;5.432;2022-08-20T11:24:57;15.13;;;5.97;;
74064;SDS011;62421;51.412;5.432;2022-08-20T11:27:27;24.73;;;8.03;;
74064;SDS011;62421;51.412;5.432;2022-08-20T11:29:57;18.92;;;7.82;;
74064;SDS011;62421;51.412;5.432;2022-08-20T11:32:23;18.92;;;8.07;;
74064;SDS011;62421;51.412;5.432;2022-08-20T11:34:48;26.80;;;11.63;;
74064;SDS011;62421;51.412;5.432;2022-08-20T11:37:15;27.45;;;11.68;;
74064;SDS011;62421;51.412;5.432;2022-08-20T11:39:41;25.60;;;11.20;;
74064;SDS011;62421;51.412;5.432;2022-08-20T11:42:07;26.10;;;10.90;;
74064;SDS011;62421;51.412;5.432;2022-08-20T11:44:32;21.77;;;9.67;;
74064;SDS011;62421;51.412;5.432;2022-08-20T11:47:01;18.57;;;9.47;;
74064;SDS011;62421;51.412;5.432;2022-08-20T11:49:29;21.88;;;8.77;;
74064;SDS011;62421;51.412;5.432;2022-08-20T11:51:55;17.13;;;6.40;;
74064;SDS011;62421;51.412;5.432;2022-08-20T11:54:20;17.17;;;6.00;;
74064;SDS011;62421;51.412;5.432;2022-08-20T11:56:45;19.20;;;6.17;;
74064;SDS011;62421;51.412;5.432;2022-08-20T11:59:12;19.75;;;6.35;;
74064;SDS011;62421;51.412;5.432;2022-08-20T12:01:38;19.33;;;5.50;;
74064;SDS011;62421;51.412;5.432;2022-08-20T12:04:03;17.25;;;5.05;;
74064;SDS011;62421;51.412;5.432;2022-08-20T12:06:29;21.77;;;4.53;;
74064;SDS011;62421;51.412;5.432;2022-08-20T12:08:55;17.65;;;5.15;;
74064;SDS011;62421;51.412;5.432;2022-08-20T12:11:20;22.00;;;7.77;;
74064;SDS011;62421;51.412;5.432;2022-08-20T12:13:45;17.57;;;7.50;;
74064;SDS011;62421;51.412;5.432;2022-08-20T12:16:11;18.50;;;6.53;;
74064;SDS011;62421;51.412;5.432;2022-08-20T12:18:36;23.40;;;7.43;;
74064;SDS011;62421;51.412;5.432;2022-08-20T12:21:02;16.55;;;4.45;;
74064;SDS011;62421;51.412;5.432;2022-08-20T12:23:27;23.60;;;5.07;;
74064;SDS011;62421;51.412;5.432;2022-08-20T12:25:52;12.90;;;4.93;;
74064;SDS011;62421;51.412;5.432;2022-08-20T12:28:18;15.07;;;4.83;;
74064;SDS011;62421;51.412;5.432;2022-08-20T12:30:43;16.77;;;4.60;;
74064;SDS011;62421;51.412;5.432;2022-08-20T12:33:09;16.80;;;4.97;;
74064;SDS011;62421;51.412;5.432;2022-08-20T12:35:34;16.67;;;4.38;;
74064;SDS011;62421;51.412;5.432;2022-08-20T12:38:03;11.97;;;4.10;;
74064;SDS011;62421;51.412;5.432;2022-08-20T12:40:29;18.25;;;4.75;;
74064;SDS011;62421;51.412;5.432;2022-08-20T12:42:55;17.57;;;4.97;;
74064;SDS011;62421;51.412;5.432;2022-08-20T12:45:20;13.87;;;4.50;;
74064;SDS011;62421;51.412;5.432;2022-08-20T12:47:46;16.80;;;4.63;;
74064;SDS011;62421;51.412;5.432;2022-08-20T12:50:13;17.23;;;4.40;;
74064;SDS011;62421;51.412;5.432;2022-08-20T12:52:40;11.65;;;3.83;;
74064;SDS011;62421;51.412;5.432;2022-08-20T12:55:07;16.07;;;4.60;;
74064;SDS011;62421;51.412;5.432;2022-08-20T12:57:47;12.20;;;3.92;;
74064;SDS011;62421;51.412;5.432;2022-08-20T13:00:15;15.23;;;4.13;;
74064;SDS011;62421;51.412;5.432;2022-08-20T13:02:44;15.98;;;4.07;;
74064;SDS011;62421;51.412;5.432;2022-08-20T13:05:10;16.00;;;3.33;;
74064;SDS011;62421;51.412;5.432;2022-08-20T13:07:37;15.75;;;3.80;;
74064;SDS011;62421;51.412;5.432;2022-08-20T13:10:04;16.55;;;3.90;;
74064;SDS011;62421;51.412;5.432;2022-08-20T13:12:31;10.83;;;2.93;;
74064;SDS011;62421;51.412;5.432;2022-08-20T13:14:56;10.07;;;2.60;;
74064;SDS011;62421;51.412;5.432;2022-08-20T13:17:22;12.23;;;3.20;;
74064;SDS011;62421;51.412;5.432;2022-08-20T13:19:47;11.37;;;3.70;;
74064;SDS011;62421;51.412;5.432;2022-08-20T13:22:13;11.83;;;3.13;;
74064;SDS011;62421;51.412;5.432;2022-08-20T13:24:38;13.77;;;3.42;;
74064;SDS011;62421;51.412;5.432;2022-08-20T13:27:09;13.67;;;3.60;;
74064;SDS011;62421;51.412;5.432;2022-08-20T13:29:35;10.65;;;2.80;;
74064;SDS011;62421;51.412;5.432;2022-08-20T13:32:01;13.70;;;3.13;;
74064;SDS011;62421;51.412;5.432;2022-08-20T13:34:27;16.35;;;4.25;;
74064;SDS011;62421;51.412;5.432;2022-08-20T13:36:52;14.63;;;4.00;;
74064;SDS011;62421;51.412;5.432;2022-08-20T13:39:19;12.50;;;3.58;;
74064;SDS011;62421;51.412;5.432;2022-08-20T13:41:45;15.82;;;4.82;;
74064;SDS011;62421;51.412;5.432;2022-08-20T13:44:10;15.40;;;4.67;;
74064;SDS011;62421;51.412;5.432;2022-08-20T13:46:36;14.80;;;5.90;;
74064;SDS011;62421;51.412;5.432;2022-08-20T13:49:01;14.13;;;4.07;;
74064;SDS011;62421;51.412;5.432;2022-08-20T13:51:26;10.82;;;3.70;;
74064;SDS011;62421;51.412;5.432;2022-08-20T13:53:52;13.03;;;3.93;;
74064;SDS011;62421;51.412;5.432;2022-08-20T13:56:17;14.47;;;4.33;;
74064;SDS011;62421;51.412;5.432;2022-08-20T13:58:42;11.23;;;4.23;;
74064;SDS011;62421;51.412;5.432;2022-08-20T14:01:08;15.00;;;4.20;;
74064;SDS011;62421;51.412;5.432;2022-08-20T14:03:33;16.00;;;5.30;;
74064;SDS011;62421;51.412;5.432;2022-08-20T14:05:59;14.63;;;4.53;;
74064;SDS011;62421;51.412;5.432;2022-08-20T14:08:25;12.25;;;4.22;;
74064;SDS011;62421;51.412;5.432;2022-08-20T14:10:51;14.37;;;3.67;;
74064;SDS011;62421;51.412;5.432;2022-08-20T14:13:17;12.80;;;3.60;;
74064;SDS011;62421;51.412;5.432;2022-08-20T14:15:44;13.70;;;3.73;;
74064;SDS011;62421;51.412;5.432;2022-08-20T14:18:10;17.55;;;4.93;;
74064;SDS011;62421;51.412;5.432;2022-08-20T14:20:36;16.10;;;4.10;;
74064;SDS011;62421;51.412;5.432;2022-08-20T14:23:02;12.95;;;3.75;;
74064;SDS011;62421;51.412;5.432;2022-08-20T14:25:28;17.93;;;4.27;;
74064;SDS011;62421;51.412;5.432;2022-08-20T14:27:55;14.35;;;5.20;;
74064;SDS011;62421;51.412;5.432;2022-08-20T14:30:25;15.35;;;5.25;;
74064;SDS011;62421;51.412;5.432;2022-08-20T14:32:52;15.35;;;5.18;;
74064;SDS011;62421;51.412;5.432;2022-08-20T14:35:18;12.73;;;4.97;;
74064;SDS011;62421;51.412;5.432;2022-08-20T14:37:48;12.00;;;5.00;;